sensor_id;sensor_type;location;lat;lon;timestamp;temperature;humidity
15048;DHT22;7621;52.350;13.308;2022-08-19T16:21:28;25.00;99.80
15048;DHT22;7621;52.350;13.308;2022-08-19T16:23:58;24.90;99.90
15048;DHT22;7621;52.350;13.308;2022-08-19T16:26:25;24.80;99.90
15048;DHT22;7621;52.350;13.308;2022-08-19T16:28:56;24.80;99.90
15048;DHT22;7621;52.350;13.308;2022-08-19T16:31:22;24.60;99.90
15048;DHT22;7621;52.350;13.308;2022-08-19T16:33:48;24.50;99.90
15048;DHT22;7621;52.350;13.308;2022-08-19T16:36:14;24.40;99.90
15048;DHT22;7621;52.350;13.308;2022-08-19T16:38:40;24.40;99.90
15048;DHT22;7621;52.350;13.308;2022-08-19T16:41:06;24.30;99.90
15048;DHT22;7621;52.350;13.308;2022-08-19T16:43:32;24.30;99.90
15048;DHT22;7621;52.350;13.308;2022-08-19T16:45:58;24.30;99.90
15048;DHT22;7621;52.350;13.308;2022-08-19T16:48:27;24.30;99.90
15048;DHT22;7621;52.350;13.308;2022-08-19T16:50:55;24.30;99.90
15048;DHT22;7621;52.350;13.308;2022-08-19T16:53:23;24.20;99.90
15048;DHT22;7621;52.350;13.308;2022-08-19T16:55:56;24.20;99.90
15048;DHT22;7621;52.350;13.308;2022-08-19T16:58:24;24.20;99.90
15048;DHT22;7621;52.350;13.308;2022-08-19T17:00:53;24.20;99.90
15048;DHT22;7621;52.350;13.308;2022-08-19T17:03:20;24.10;99.90
15048;DHT22;7621;52.350;13.308;2022-08-19T17:05:50;24.10;99.90
15048;DHT22;7621;52.350;13.308;2022-08-19T17:08:19;24.10;99.90
15048;DHT22;7621;52.350;13.308;2022-08-19T17:10:45;24.10;99.90
15048;DHT22;7621;52.350;13.308;2022-08-19T17:13:12;24.00;99.90
15048;DHT22;7621;52.350;13.308;2022-08-19T17:15:42;24.00;99.90
15048;DHT22;7621;52.350;13.308;2022-08-19T17:18:10;23.90;99.90
15048;DHT22;7621;52.350;13.308;2022-08-19T17:20:37;23.90;99.90
15048;DHT22;7621;52.350;13.308;2022-08-19T17:23:03;23.90;99.90
15048;DHT22;7621;52.350;13.308;2022-08-19T17:25:30;23.90;99.90
15048;DHT22;7621;52.350;13.308;2022-08-19T17:27:57;23.80;99.90
15048;DHT22;7621;52.350;13.308;2022-08-19T17:30:24;23.80;99.90
15048;DHT22;7621;52.350;13.308;2022-08-19T17:32:50;23.80;99.90
15048;DHT22;7621;52.350;13.308;2022-08-19T17:35:16;23.70;99.90
15048;DHT22;7621;52.350;13.308;2022-08-19T17:37:43;23.70;99.90
15048;DHT22;7621;52.350;13.308;2022-08-19T17:40:10;23.70;99.90
15048;DHT22;7621;52.350;13.308;2022-08-19T17:42:36;23.70;99.90
15048;DHT22;7621;52.350;13.308;2022-08-19T17:45:03;23.70;99.90
15048;DHT22;7621;52.350;13.308;2022-08-19T17:47:29;23.60;99.90
15048;DHT22;7621;52.350;13.308;2022-08-19T17:49:55;23.60;99.90
15048;DHT22;7621;52.350;13.308;2022-08-19T17:52:21;23.60;99.90
15048;DHT22;7621;52.350;13.308;2022-08-19T17:54:47;23.60;99.90
15048;DHT22;7621;52.350;13.308;2022-08-19T17:57:12;23.60;99.90
15048;DHT22;7621;52.350;13.308;2022-08-19T17:59:38;23.60;99.90
15048;DHT22;7621;52.350;13.308;2022-08-19T18:02:05;23.50;99.90
15048;DHT22;7621;52.350;13.308;2022-08-19T18:04:31;23.50;99.90
15048;DHT22;7621;52.350;13.308;2022-08-19T18:06:57;23.50;99.90
15048;DHT22;7621;52.350;13.308;2022-08-19T18:09:28;23.40;99.90
15048;DHT22;7621;52.350;13.308;2022-08-19T18:11:56;23.40;99.90
15048;DHT22;7621;52.350;13.308;2022-08-19T18:14:23;23.40;99.90
15048;DHT22;7621;52.350;13.308;2022-08-19T18:16:52;23.40;99.90
15048;DHT22;7621;52.350;13.308;2022-08-19T18:19:20;23.40;99.90
15048;DHT22;7621;52.350;13.308;2022-08-19T18:21:46;23.40;99.90
15048;DHT22;7621;52.350;13.308;2022-08-19T18:24:11;23.40;99.90
15048;DHT22;7621;52.350;13.308;2022-08-19T18:26:37;23.30;99.90
15048;DHT22;7621;52.350;13.308;2022-08-19T18:29:04;23.20;99.90
15048;DHT22;7621;52.350;13.308;2022-08-19T18:31:30;23.20;99.90
15048;DHT22;7621;52.350;13.308;2022-08-19T18:33:56;23.20;99.90
15048;DHT22;7621;52.350;13.308;2022-08-19T18:36:21;23.10;99.90
15048;DHT22;7621;52.350;13.308;2022-08-19T18:38:47;23.10;99.90
15048;DHT22;7621;52.350;13.308;2022-08-19T18:41:31;23.10;99.90
15048;DHT22;7621;52.350;13.308;2022-08-19T18:44:15;23.10;99.90
15048;DHT22;7621;52.350;13.308;2022-08-19T18:46:59;23.00;99.90
15048;DHT22;7621;52.350;13.308;2022-08-19T18:49:43;22.90;99.90
15048;DHT22;7621;52.350;13.308;2022-08-19T18:52:09;22.80;99.90
15048;DHT22;7621;52.350;13.308;2022-08-19T18:54:34;22.80;99.90
15048;DHT22;7621;52.350;13.308;2022-08-19T18:57:01;22.80;99.90
15048;DHT22;7621;52.350;13.308;2022-08-19T18:59:27;22.70;99.90
15048;DHT22;7621;52.350;13.308;2022-08-19T19:01:55;22.70;99.90
15048;DHT22;7621;52.350;13.308;2022-08-19T19:04:24;22.70;99.90
15048;DHT22;7621;52.350;13.308;2022-08-19T19:06:50;22.70;99.90
15048;DHT22;7621;52.350;13.308;2022-08-19T19:09:19;22.60;99.90
15048;DHT22;7621;52.350;13.308;2022-08-19T19:11:49;22.60;99.90
15048;DHT22;7621;52.350;13.308;2022-08-19T19:14:20;22.60;99.90
15048;DHT22;7621;52.350;13.308;2022-08-19T19:16:46;22.60;99.90
15048;DHT22;7621;52.350;13.308;2022-08-19T19:19:12;22.60;99.90
15048;DHT22;7621;52.350;13.308;2022-08-19T19:21:44;22.60;99.90
15048;DHT22;7621;52.350;13.308;2022-08-19T19:24:20;22.60;99.90
15048;DHT22;7621;52.350;13.308;2022-08-19T19:26:49;22.60;99.90
15048;DHT22;7621;52.350;13.308;2022-08-19T19:29:16;22.50;99.90
15048;DHT22;7621;52.350;13.308;2022-08-19T19:31:42;22.60;99.90
15048;DHT22;7621;52.350;13.308;2022-08-19T19:34:10;22.60;99.90
15048;DHT22;7621;52.350;13.308;2022-08-19T19:36:36;22.60;99.90
15048;DHT22;7621;52.350;13.308;2022-08-19T19:39:02;22.60;99.90
15048;DHT22;7621;52.350;13.308;2022-08-19T19:41:28;22.60;99.90
15048;DHT22;7621;52.350;13.308;2022-08-19T19:43:55;22.60;99.90
15048;DHT22;7621;52.350;13.308;2022-08-19T19:46:26;22.60;99.90
15048;DHT22;7621;52.350;13.308;2022-08-19T19:48:52;22.60;99.90
15048;DHT22;7621;52.350;13.308;2022-08-19T19:51:19;22.60;99.90
15048;DHT22;7621;52.350;13.308;2022-08-19T19:53:45;22.60;99.90
15048;DHT22;7621;52.350;13.308;2022-08-19T19:56:10;22.60;99.90
15048;DHT22;7621;52.350;13.308;2022-08-19T19:58:37;22.50;99.90
15048;DHT22;7621;52.350;13.308;2022-08-19T20:01:03;22.50;99.90
15048;DHT22;7621;52.350;13.308;2022-08-19T20:03:31;22.50;99.90
15048;DHT22;7621;52.350;13.308;2022-08-19T20:05:57;22.50;99.90
15048;DHT22;7621;52.350;13.308;2022-08-19T20:08:26;22.50;99.90
15048;DHT22;7621;52.350;13.308;2022-08-19T20:11:11;22.50;99.90
15048;DHT22;7621;52.350;13.308;2022-08-19T20:13:41;22.50;99.90
15048;DHT22;7621;52.350;13.308;2022-08-19T20:16:06;22.50;99.90
15048;DHT22;7621;52.350;13.308;2022-08-19T20:18:32;22.50;99.90
15048;DHT22;7621;52.350;13.308;2022-08-19T20:20:58;22.50;99.90
15048;DHT22;7621;52.350;13.308;2022-08-19T20:23:25;22.50;99.90
